| time (UTC) | temp F | wind direction | speed knots | gust knots | rain 1hr in | rain 24hr in | rain mn in | humidity % | barometer mb |
| 20260504151020 | 69 | 189 | 0.0 | 0.0 | 0.00 | 0.00 | 0.00 | 37 | 1030.8 |
| 20260504141221 | 63 | 198 | 0.0 | 0.0 | 0.00 | 0.00 | 0.00 | 44 | 1031.3 |
| 20260504140222 | 63 | 112 | 0.0 | 0.0 | 0.00 | 0.00 | 0.00 | 46 | 1031.1 |
| 20260504130430 | 57 | 123 | 0.0 | 0.0 | 0.00 | 0.00 | 0.00 | 53 | 1031.9 |
| 20260504081919 | 46 | 112 | 0.0 | 0.0 | 0.00 | 0.00 | 0.00 | 78 | 1032.6 |
| 20260504080920 | 46 | 180 | 0.0 | 0.0 | 0.00 | 0.00 | 0.00 | 81 | 1032.4 |
| 20260504060120 | 43 | 112 | 0.0 | 0.0 | 0.00 | 0.00 | 0.00 | 83 | 1032.8 |
| 20260504050320 | 41 | 112 | 0.0 | 0.0 | 0.00 | 0.00 | 0.00 | 83 | 1032.7 |
| 20260504045323 | 41 | 112 | 0.0 | 0.0 | 0.00 | 0.00 | 0.00 | 82 | 1032.6 |
| 20260504044420 | 41 | 112 | 0.0 | 0.0 | 0.00 | 0.00 | 0.00 | 83 | 1032.5 |
| 20260504043419 | 40 | 112 | 0.0 | 0.0 | 0.00 | 0.00 | 0.00 | 83 | 1032.5 |
| 20260504042437 | 40 | 112 | 0.0 | 0.0 | 0.00 | 0.00 | 0.00 | 82 | 1032.3 |
| 20260504041419 | 40 | 112 | 0.0 | 0.0 | 0.00 | 0.00 | 0.00 | 81 | 1032.4 |
| 20260504040419 | 40 | 112 | 0.0 | 0.0 | 0.00 | 0.00 | 0.00 | 81 | 1032.6 |
| 20260504035425 | 40 | 112 | 0.0 | 0.0 | 0.00 | 0.00 | 0.00 | 81 | 1032.6 |
| 20260504034424 | 40 | 112 | 0.0 | 0.0 | 0.00 | 0.00 | 0.00 | 79 | 1032.4 |
| 20260504033524 | 40 | 112 | 0.0 | 0.0 | 0.00 | 0.00 | 0.00 | 79 | 1032.5 |
| 20260504032526 | 40 | 112 | 0.0 | 0.0 | 0.00 | 0.00 | 0.00 | 78 | 1032.4 |
| 20260504031525 | 40 | 112 | 0.0 | 0.0 | 0.00 | 0.00 | 0.00 | 78 | 1032.4 |
| 20260504030527 | 40 | 112 | 0.0 | 0.0 | 0.00 | 0.00 | 0.00 | 78 | 1032.3 |
| 20260504025525 | 39 | 112 | 0.0 | 0.0 | 0.00 | 0.00 | 0.00 | 77 | 1032.1 |
| 20260504024525 | 39 | 112 | 0.0 | 0.0 | 0.00 | 0.00 | 0.00 | 76 | 1032.2 |
| 20260504023525 | 40 | 112 | 0.0 | 0.0 | 0.00 | 0.00 | 0.00 | 75 | 1032.3 |
| 20260504023425 | 40 | 112 | 0.0 | 0.0 | 0.00 | 0.00 | 0.00 | 75 | 1032.3 |
| 20260504022426 | 40 | 112 | 0.0 | 0.0 | 0.00 | 0.00 | 0.00 | 73 | 1032.3 |
| 20260504020441 | 41 | 112 | 0.0 | 0.0 | 0.00 | 0.00 | 0.00 | 69 | 1032.1 |
| 20260504015527 | 42 | 112 | 0.0 | 0.0 | 0.00 | 0.00 | 0.00 | 67 | 1032.1 |
| 20260504013526 | 44 | 112 | 0.0 | 0.0 | 0.00 | 0.00 | 0.00 | 66 | 1032.0 |
| 20260504012524 | 43 | 206 | 0.0 | 0.0 | 0.00 | 0.00 | 0.00 | 66 | 1032.0 |
| 20260504010525 | 44 | 180 | 0.0 | 0.0 | 0.00 | 0.00 | 0.00 | 65 | 1031.7 |
| 20260504005623 | 45 | 180 | 0.0 | 0.0 | 0.00 | 0.00 | 0.00 | 62 | 1031.8 |
| 20260504003624 | 48 | 202 | 0.0 | 0.0 | 0.00 | 0.00 | 0.00 | 56 | 1031.6 |
| 20260504002624 | 50 | 202 | 0.0 | 0.0 | 0.00 | 0.00 | 0.00 | 52 | 1031.6 |
| 20260504001723 | 52 | 202 | 0.0 | 0.0 | 0.00 | 0.00 | 0.00 | 50 | 1031.7 |
| 20260504000725 | 52 | 202 | 0.0 | 0.0 | 0.00 | 0.00 | 0.00 | 48 | 1031.5 |
| 20260503235725 | 54 | 202 | 0.0 | 0.0 | 0.00 | 0.00 | 0.00 | 44 | 1031.4 |
| 20260503234725 | 57 | 202 | 0.0 | 0.0 | 0.00 | 0.00 | 0.00 | 38 | 1031.4 |
| 20260503233725 | 60 | 202 | 0.0 | 0.0 | 0.00 | 0.00 | 0.00 | 32 | 1031.2 |
| 20260503231725 | 61 | 202 | 0.0 | 0.0 | 0.00 | 0.00 | 0.00 | 31 | 1031.0 |
| 20260503230725 | 61 | 202 | 0.0 | 0.0 | 0.00 | 0.00 | 0.00 | 31 | 1031.0 |
| 20260503225726 | 61 | 202 | 0.0 | 0.0 | 0.00 | 0.00 | 0.00 | 30 | 1031.1 |
| 20260503224724 | 62 | 278 | 0.0 | 0.0 | 0.00 | 0.00 | 0.00 | 31 | 1031.1 |
| 20260503223725 | 62 | 202 | 0.0 | 0.0 | 0.00 | 0.00 | 0.00 | 30 | 1031.0 |
| 20260503222824 | 62 | 210 | 0.0 | 0.0 | 0.00 | 0.00 | 0.00 | 30 | 1030.9 |
| 20260503221826 | 62 | 202 | 0.0 | 0.0 | 0.00 | 0.00 | 0.00 | 30 | 1031.1 |
| 20260503220825 | 62 | 247 | 0.0 | 0.0 | 0.00 | 0.00 | 0.00 | 30 | 1031.0 |
| 20260503215824 | 62 | 202 | 0.0 | 0.0 | 0.00 | 0.00 | 0.00 | 30 | 1031.2 |
| 20260503214724 | 62 | 210 | 0.0 | 0.0 | 0.00 | 0.00 | 0.00 | 30 | 1031.2 |
| 20260503212823 | 62 | 257 | 0.0 | 0.0 | 0.00 | 0.00 | 0.00 | 31 | 1031.1 |
| 20260503211824 | 62 | 238 | 0.0 | 0.0 | 0.00 | 0.00 | 0.00 | 30 | 1031.2 |
| 20260503210825 | 62 | 202 | 0.0 | 0.0 | 0.00 | 0.00 | 0.00 | 31 | 1031.2 |
| 20260503205924 | 61 | 204 | 0.0 | 0.0 | 0.00 | 0.00 | 0.00 | 31 | 1031.3 |
| 20260503204924 | 61 | 254 | 0.0 | 0.0 | 0.00 | 0.00 | 0.00 | 31 | 1031.3 |
| 20260503203924 | 60 | 237 | 0.0 | 0.0 | 0.00 | 0.00 | 0.00 | 31 | 1031.3 |
| 20260503203023 | 61 | 215 | 0.0 | 0.0 | 0.00 | 0.00 | 0.00 | 31 | 1031.4 |
| 20260503201024 | 61 | 237 | 0.0 | 0.0 | 0.00 | 0.00 | 0.00 | 32 | 1031.8 |
| 20260503200923 | 60 | 204 | 0.0 | 0.0 | 0.00 | 0.00 | 0.00 | 32 | 1031.8 |
| 20260503195925 | 61 | 225 | 0.0 | 0.0 | 0.00 | 0.00 | 0.00 | 31 | 1032.0 |
| 20260503195823 | 61 | 203 | 0.0 | 0.0 | 0.00 | 0.00 | 0.00 | 31 | 1032.0 |
| 20260503194922 | 61 | 228 | 0.0 | 0.0 | 0.00 | 0.00 | 0.00 | 32 | 1032.2 |
| 20260503193925 | 61 | 278 | 0.0 | 0.0 | 0.00 | 0.00 | 0.00 | 33 | 1032.1 |
| 20260503192926 | 60 | 214 | 0.0 | 0.0 | 0.00 | 0.00 | 0.00 | 32 | 1032.3 |
| 20260503192022 | 60 | 215 | 0.0 | 0.0 | 0.00 | 0.00 | 0.00 | 32 | 1032.5 |
| 20260503191024 | 60 | 243 | 0.0 | 0.0 | 0.00 | 0.00 | 0.00 | 32 | 1032.7 |
| 20260503185123 | 59 | 233 | 0.0 | 0.0 | 0.00 | 0.00 | 0.00 | 33 | 1032.8 |
| 20260503183125 | 58 | 293 | 0.0 | 0.0 | 0.00 | 0.00 | 0.00 | 33 | 1033.3 |
| 20260503182124 | 59 | 306 | 0.0 | 0.0 | 0.00 | 0.00 | 0.00 | 34 | 1033.2 |
| 20260503181123 | 58 | 225 | 0.0 | 0.0 | 0.00 | 0.00 | 0.00 | 34 | 1033.2 |
| 20260503180125 | 57 | 250 | 0.0 | 0.0 | 0.00 | 0.00 | 0.00 | 35 | 1033.4 |
| 20260503175224 | 57 | 286 | 0.0 | 0.0 | 0.00 | 0.00 | 0.00 | 35 | 1033.4 |
| 20260503174324 | 57 | 291 | 0.0 | 0.0 | 0.00 | 0.00 | 0.00 | 36 | 1033.4 |
| 20260503173325 | 57 | 258 | 0.0 | 0.0 | 0.00 | 0.00 | 0.00 | 37 | 1033.5 |
| 20260503172324 | 56 | 251 | 0.0 | 0.0 | 0.00 | 0.00 | 0.00 | 36 | 1033.5 |
| 20260503171324 | 55 | 295 | 0.0 | 0.0 | 0.00 | 0.00 | 0.00 | 37 | 1033.5 |
| 20260503171240 | 55 | 296 | 0.0 | 0.0 | 0.00 | 0.00 | 0.00 | 37 | 1033.4 |